Time;durP1;ratioP1;P1;durP2;ratioP2;P2;SDS_P1;SDS_P2;PMS_P1;PMS_P2;Temp;Humidity;BMP_temperature;BMP_pressure;BME280_temperature;BME280_humidity;BME280_pressure;Samples;Min_cycle;Max_cycle;Signal;HPM_P1;HPM_P2
2022/11/22 00:00:24;;;;;;;;;0.00;0.00;;;;;8.84;75.86;-19449.09;4997387;28;45551;-83
2022/11/22 00:02:49;;;;;;;;;2.00;0.00;;;;;8.68;75.49;-19444.78;4997766;28;45825;-82
2022/11/22 00:05:15;;;;;;;;;2.33;1.00;;;;;8.88;75.69;-19450.19;4978894;28;45669;-82
2022/11/22 00:07:40;;;;;;;;;4.33;1.33;;;;;9.07;75.47;-19455.31;4997397;28;45630;-83
2022/11/22 00:10:08;;;;;;;;;3.00;1.00;;;;;8.93;75.52;-19451.41;4998308;28;45442;-82
2022/11/22 00:12:34;;;;;;;;;2.00;2.00;;;;;8.50;75.82;-19440.03;5004697;28;45478;-82
2022/11/22 00:15:00;;;;;;;;;1.00;1.00;;;;;8.95;75.90;-19451.94;4980446;28;45642;-81
2022/11/22 00:17:26;;;;;;;;;2.00;0.67;;;;;8.58;75.64;-19442.34;4997327;28;45646;-82
2022/11/22 00:19:52;;;;;;;;;2.00;0.33;;;;;8.37;75.49;-19436.66;4959552;28;45783;-83
2022/11/22 00:22:17;;;;;;;;;1.00;1.00;;;;;8.90;75.85;-19450.59;4977714;28;45482;-83
2022/11/22 00:24:45;;;;;;;;;6.00;0.33;;;;;8.77;75.88;-19447.22;4973465;28;45428;-83
2022/11/22 00:27:10;;;;;;;;;3.00;2.00;;;;;8.51;75.86;-19440.31;4979909;28;45743;-82
2022/11/22 00:29:42;;;;;;;;;0.67;0.00;;;;;8.79;75.83;-19447.88;4977223;28;46041;-81
2022/11/22 00:32:08;;;;;;;;;1.00;1.00;;;;;7.94;75.52;-19425.44;4972127;28;45377;-83
2022/11/22 00:34:33;;;;;;;;;2.00;1.00;;;;;9.05;75.63;-19454.63;4977382;28;45483;-83
2022/11/22 00:36:59;;;;;;;;;0.00;0.00;;;;;9.05;75.64;-19454.78;4976884;28;46029;-83
2022/11/22 00:39:24;;;;;;;;;3.00;1.00;;;;;8.88;75.31;-19450.19;4976751;28;45415;-82
2022/11/22 00:41:49;;;;;;;;;1.00;1.00;;;;;8.78;75.49;-19447.47;4958540;28;47142;-83
2022/11/22 00:44:15;;;;;;;;;1.33;1.33;;;;;8.43;75.49;-19438.28;4977306;28;45440;-83
2022/11/22 00:46:43;;;;;;;;;2.00;1.00;;;;;8.36;75.34;-19436.53;4976859;28;47094;-82
2022/11/22 00:49:09;;;;;;;;;2.00;0.00;;;;;9.05;75.23;-19454.63;4976960;28;45516;-83
2022/11/22 00:51:34;;;;;;;;;1.00;1.00;;;;;8.67;75.11;-19444.63;4976427;28;45872;-83
2022/11/22 00:54:00;;;;;;;;;2.67;0.33;;;;;8.64;75.16;-19443.81;4976384;28;45472;-83
2022/11/22 00:56:25;;;;;;;;;9.00;1.00;;;;;9.04;74.92;-19454.38;4976375;28;46041;-83
2022/11/22 00:58:51;;;;;;;;;1.00;0.00;;;;;8.76;74.74;-19447.06;4976486;28;45682;-83
2022/11/22 01:01:16;;;;;;;;;1.00;1.00;;;;;8.66;74.86;-19444.50;4986789;28;45663;-83
2022/11/22 01:03:41;;;;;;;;;2.00;1.00;;;;;9.06;74.39;-19455.03;4976356;28;45275;-83
2022/11/22 01:06:07;;;;;;;;;0.33;0.33;;;;;8.46;74.58;-19439.09;4976564;28;45490;-83
2022/11/22 01:08:32;;;;;;;;;1.00;1.00;;;;;8.49;74.71;-19439.91;4971712;28;45399;-83
2022/11/22 01:11:01;;;;;;;;;1.00;1.00;;;;;9.06;74.98;-19454.91;4976757;28;45600;-83
2022/11/22 01:13:28;;;;;;;;;0.00;0.00;;;;;9.08;74.71;-19455.44;4976771;28;45535;-82
2022/11/22 01:16:02;;;;;;;;;0.33;0.33;;;;;8.77;74.64;-19447.34;4976440;28;46130;-84
2022/11/22 01:18:28;;;;;;;;;1.33;1.00;;;;;9.11;75.00;-19456.25;4977373;28;45447;-83
2022/11/22 01:20:53;;;;;;;;;2.33;1.00;;;;;8.92;74.94;-19451.13;4993106;28;45577;-83
2022/11/22 01:23:22;;;;;;;;;2.00;1.00;;;;;8.21;74.68;-19432.47;4995572;28;45578;-82
2022/11/22 01:25:48;;;;;;;;;0.33;0.00;;;;;8.97;74.36;-19452.47;4995901;28;45274;-83
2022/11/22 01:28:13;;;;;;;;;1.00;1.00;;;;;8.62;74.83;-19443.28;4995980;28;45371;-83
2022/11/22 01:30:40;;;;;;;;;2.33;0.00;;;;;9.17;74.67;-19457.75;4992304;28;45591;-83
2022/11/22 01:33:05;;;;;;;;;1.67;0.00;;;;;9.20;74.59;-19458.56;4978966;28;45778;-83
2022/11/22 01:35:31;;;;;;;;;3.33;1.00;;;;;9.20;74.44;-19458.69;4995699;28;47326;-81
2022/11/22 01:38:00;;;;;;;;;1.00;1.00;;;;;8.81;75.17;-19448.28;4978553;28;45511;-83
2022/11/22 01:40:25;;;;;;;;;0.67;0.67;;;;;8.11;74.67;-19429.91;4997032;28;45592;-83
2022/11/22 01:42:54;;;;;;;;;1.00;1.00;;;;;9.24;74.96;-19459.63;4996108;28;45382;-83
2022/11/22 01:45:28;;;;;;;;;3.00;1.00;;;;;9.21;74.97;-19458.81;4995950;28;46508;-83
2022/11/22 01:48:10;;;;;;;;;1.00;1.00;;;;;9.05;75.21;-19454.63;4995487;28;45740;-83
2022/11/22 01:50:38;;;;;;;;;2.00;0.00;;;;;9.22;75.06;-19459.22;4995420;28;45675;-82
2022/11/22 01:53:09;;;;;;;;;1.00;1.00;;;;;8.31;74.88;-19435.03;5002263;28;45625;-80
2022/11/22 01:55:35;;;;;;;;;0.00;0.00;;;;;8.80;75.17;-19448.00;4983704;28;46717;-83
2022/11/22 01:58:01;;;;;;;;;0.33;0.33;;;;;8.53;75.07;-19440.84;5000600;28;45400;-83
2022/11/22 02:00:27;;;;;;;;;1.00;0.00;;;;;9.16;75.28;-19457.63;4995649;28;45516;-83
2022/11/22 02:02:57;;;;;;;;;2.00;1.00;;;;;9.26;75.12;-19460.19;4995121;28;45406;-82
2022/11/22 02:05:27;;;;;;;;;1.00;1.00;;;;;8.87;75.01;-19449.91;4995574;28;46511;-82
2022/11/22 02:08:02;;;;;;;;;2.00;0.00;;;;;9.24;75.50;-19459.78;4994959;28;45565;-82
2022/11/22 02:10:34;;;;;;;;;1.33;0.00;;;;;8.87;75.20;-19450.03;4984127;28;45309;-82
2022/11/22 02:13:00;;;;;;;;;1.67;1.00;;;;;9.22;75.28;-19459.09;4995154;28;45562;-81
2022/11/22 02:15:25;;;;;;;;;1.00;0.00;;;;;9.12;75.08;-19456.41;4995045;28;47469;-82
2022/11/22 02:17:51;;;;;;;;;0.00;0.00;;;;;8.42;75.28;-19438.00;4994536;28;45513;-83
2022/11/22 02:20:18;;;;;;;;;0.00;0.00;;;;;8.37;75.56;-19436.78;4994123;28;45432;-83
2022/11/22 02:22:55;;;;;;;;;0.00;0.00;;;;;9.21;75.19;-19458.81;4994967;28;45527;-82
2022/11/22 02:25:26;;;;;;;;;1.67;1.00;;;;;9.20;75.11;-19458.69;4992803;28;45720;-83
2022/11/22 02:27:52;;;;;;;;;0.00;0.00;;;;;9.16;75.56;-19457.47;4993944;28;45569;-83
2022/11/22 02:30:18;;;;;;;;;0.00;0.00;;;;;7.63;75.34;-19417.19;4987643;28;45583;-83
2022/11/22 02:32:43;;;;;;;;;2.67;1.00;;;;;8.76;75.66;-19446.94;4995485;28;45407;-83
2022/11/22 02:35:23;;;;;;;;;2.00;1.00;;;;;8.47;75.45;-19439.22;4990880;28;47606;-81
2022/11/22 02:37:53;;;;;;;;;1.33;0.00;;;;;9.14;75.75;-19457.06;4994951;28;45729;-83
2022/11/22 02:40:19;;;;;;;;;0.00;0.00;;;;;8.42;75.58;-19438.16;4998474;28;45464;-81
2022/11/22 02:42:51;;;;;;;;;2.00;0.00;;;;;8.53;75.47;-19440.84;5001168;28;45389;-83
2022/11/22 02:45:17;;;;;;;;;3.00;0.00;;;;;9.14;75.43;-19456.94;5004383;28;45666;-83
2022/11/22 02:47:45;;;;;;;;;0.00;0.00;;;;;7.56;75.73;-19415.28;4994425;28;45344;-83
2022/11/22 02:50:11;;;;;;;;;3.00;1.67;;;;;8.55;76.03;-19441.53;4997871;28;45676;-83
2022/11/22 02:52:39;;;;;;;;;1.67;1.00;;;;;8.57;75.88;-19442.06;4998556;28;45551;-83
2022/11/22 02:55:05;;;;;;;;;0.67;0.00;;;;;8.99;75.97;-19453.00;4992556;28;45755;-82
2022/11/22 02:57:31;;;;;;;;;1.33;0.00;;;;;8.41;75.96;-19437.75;4998173;28;45619;-84
2022/11/22 02:59:57;;;;;;;;;0.00;0.00;;;;;8.47;76.44;-19439.22;4983394;28;45475;-83
2022/11/22 03:02:22;;;;;;;;;0.00;0.00;;;;;8.48;76.18;-19439.63;4985678;28;45458;-84
2022/11/22 03:04:47;;;;;;;;;0.33;0.00;;;;;8.83;76.62;-19448.97;5008638;28;45512;-84
2022/11/22 03:07:13;;;;;;;;;0.00;0.00;;;;;8.66;76.59;-19444.50;4997964;28;45501;-82
2022/11/22 03:09:38;;;;;;;;;1.00;1.00;;;;;8.81;76.27;-19448.41;4999976;28;45554;-84
2022/11/22 03:12:04;;;;;;;;;1.00;1.00;;;;;8.37;76.19;-19436.78;5002113;28;45650;-84
2022/11/22 03:14:29;;;;;;;;;2.00;0.00;;;;;8.59;76.77;-19442.47;5002214;28;46576;-84
2022/11/22 03:16:55;;;;;;;;;0.00;0.00;;;;;8.74;76.71;-19446.53;4995291;28;45677;-84
2022/11/22 03:19:20;;;;;;;;;0.00;0.00;;;;;9.24;76.80;-19459.63;5002173;28;46780;-84
2022/11/22 03:21:46;;;;;;;;;0.33;0.00;;;;;8.96;76.77;-19452.34;4992959;28;45427;-84
2022/11/22 03:24:12;;;;;;;;;0.00;0.00;;;;;8.62;76.54;-19443.28;4996487;28;45722;-84
2022/11/22 03:26:37;;;;;;;;;0.00;0.00;;;;;9.28;77.00;-19460.72;4994447;28;45638;-84
2022/11/22 03:29:05;;;;;;;;;0.00;0.00;;;;;9.31;76.99;-19461.53;4992397;28;45557;-85
2022/11/22 03:31:31;;;;;;;;;0.00;0.00;;;;;9.14;76.91;-19456.94;4998572;28;45573;-84
2022/11/22 03:33:56;;;;;;;;;0.00;0.00;;;;;9.05;76.97;-19454.63;4997413;28;46242;-84
2022/11/22 03:36:22;;;;;;;;;1.00;1.00;;;;;9.07;76.78;-19455.31;4992653;28;45524;-84
2022/11/22 03:38:47;;;;;;;;;1.33;0.00;;;;;8.80;77.22;-19448.16;5230606;22;45744;-83
2022/11/22 03:41:13;;;;;;;;;0.00;0.00;;;;;9.14;77.14;-19456.94;4993652;28;45756;-83
2022/11/22 03:43:41;;;;;;;;;0.00;0.00;;;;;9.04;77.33;-19454.38;5015540;28;45541;-84
2022/11/22 03:46:13;;;;;;;;;0.00;0.00;;;;;9.36;77.36;-19462.88;5009152;28;45456;-84
2022/11/22 03:48:38;;;;;;;;;1.00;0.00;;;;;8.87;77.08;-19449.91;5017117;28;45416;-83
2022/11/22 03:51:05;;;;;;;;;1.67;1.00;;;;;8.97;77.30;-19452.47;5014914;28;45633;-83
2022/11/22 03:53:32;;;;;;;;;0.00;0.00;;;;;8.43;77.32;-19438.28;5016386;28;45652;-84
2022/11/22 03:55:57;;;;;;;;;0.67;0.67;;;;;8.62;77.41;-19443.28;5017323;28;45489;-83
2022/11/22 03:58:23;;;;;;;;;1.00;1.00;;;;;9.44;77.58;-19464.91;5017573;28;45716;-84
2022/11/22 04:00:48;;;;;;;;;0.33;0.33;;;;;8.75;77.47;-19446.78;5010589;28;45359;-84
2022/11/22 04:03:13;;;;;;;;;2.00;0.00;;;;;8.98;77.71;-19452.88;5015337;28;46597;-83
2022/11/22 04:05:38;;;;;;;;;2.00;0.00;;;;;8.72;77.50;-19446.00;5017008;28;45637;-84
2022/11/22 04:08:04;;;;;;;;;0.00;0.00;;;;;9.38;77.76;-19463.41;5016666;28;45502;-84
2022/11/22 04:10:30;;;;;;;;;0.33;0.00;;;;;9.39;77.73;-19463.69;5014846;28;45727;-84
2022/11/22 04:12:57;;;;;;;;;1.67;0.00;;;;;9.47;77.86;-19465.72;5008237;28;47199;-83
2022/11/22 04:15:22;;;;;;;;;0.33;0.33;;;;;9.41;77.99;-19464.22;5011247;28;45530;-84
2022/11/22 04:17:47;;;;;;;;;0.00;0.00;;;;;8.91;77.39;-19450.84;5016497;28;45495;-84
2022/11/22 04:23:14;;;;;;;;;0.00;0.00;;;;;9.44;77.73;-19464.91;5004486;28;45485;-83
2022/11/22 04:25:42;;;;;;;;;0.00;0.00;;;;;8.10;77.56;-19429.47;5009663;28;45711;-84
2022/11/22 04:28:10;;;;;;;;;0.00;0.00;;;;;9.20;77.78;-19458.69;5007783;28;45525;-82
2022/11/22 04:33:20;;;;;;;;;0.00;0.00;;;;;9.30;77.46;-19461.41;5014725;28;45868;-83
2022/11/22 04:35:46;;;;;;;;;0.67;0.00;;;;;9.37;77.69;-19463.00;4988469;28;45698;-85
2022/11/22 04:38:12;;;;;;;;;0.00;0.00;;;;;9.68;77.76;-19471.25;4993899;28;45857;-84
2022/11/22 04:40:38;;;;;;;;;0.00;0.00;;;;;9.67;77.28;-19470.97;5016283;28;45715;-84
2022/11/22 04:45:50;;;;;;;;;0.00;0.00;;;;;9.48;77.28;-19465.97;5002998;28;45501;-84
2022/11/22 04:48:15;;;;;;;;;3.00;0.00;;;;;9.55;77.37;-19467.88;4995712;28;45448;-84
2022/11/22 04:53:28;;;;;;;;;1.00;0.00;;;;;9.56;77.06;-19468.16;5016445;28;45682;-82
2022/11/22 04:55:53;;;;;;;;;2.00;0.67;;;;;8.84;77.33;-19449.09;5006838;28;45395;-84
2022/11/22 04:58:19;;;;;;;;;0.00;0.00;;;;;9.46;77.51;-19465.44;5015869;28;45459;-83
2022/11/22 05:00:45;;;;;;;;;0.67;0.00;;;;;9.30;77.43;-19461.41;5016081;28;45570;-83
2022/11/22 05:03:10;;;;;;;;;0.67;0.67;;;;;9.37;77.42;-19463.00;5014848;28;45828;-84
2022/11/22 05:08:57;;;;;;;;;0.33;0.00;;;;;8.67;77.37;-19444.63;5128830;23;45361;-83
2022/11/22 05:11:35;;;;;;;;;0.00;0.00;;;;;8.89;77.29;-19450.44;4995013;28;45405;-83
2022/11/22 05:14:10;;;;;;;;;3.00;0.00;;;;;7.53;77.12;-19414.59;4979805;28;46335;-83
2022/11/22 05:16:35;;;;;;;;;0.00;0.00;;;;;7.21;77.51;-19405.94;4970832;28;45441;-83
2022/11/22 05:19:19;;;;;;;;;0.00;0.00;;;;;7.48;76.90;-19413.25;4993973;28;45527;-83
2022/11/22 05:23:53;;;;;;;;;0.00;0.00;;;;;9.73;77.61;-19472.72;4989641;28;45368;-83
2022/11/22 05:25:10;;;;;;;;;0.00;0.00;;;;;6.80;77.78;-19395.09;4989164;28;45636;-83
2022/11/22 05:28:09;;;;;;;;;0.00;0.00;;;;;9.75;78.67;-19473.13;4992522;28;45947;-83
2022/11/22 05:30:47;;;;;;;;;1.67;0.00;;;;;7.06;79.15;-19402.16;4992820;28;45519;-83
2022/11/22 05:33:28;;;;;;;;;1.00;0.00;;;;;8.86;80.22;-18058.16;4995269;28;45685;-83
2022/11/22 05:35:59;;;;;;;;;0.00;0.00;;;;;7.82;80.09;-17080.34;4975949;28;47388;-83
2022/11/22 05:41:54;;;;;;;;;0.00;0.00;;;;;7.14;81.33;-10564.34;4975440;28;45617;-83
2022/11/22 05:45:21;;;;;;;;;0.00;0.00;;;;;7.50;81.83;-5189.63;4981057;28;45397;-84
2022/11/22 05:47:46;;;;;;;;;0.00;0.00;;;;;9.26;81.74;-5428.81;4893480;29;45454;-84
2022/11/22 05:50:11;;;;;;;;;0.67;0.67;;;;;9.51;82.32;453.94;4896874;29;45545;-84
2022/11/22 05:52:37;;;;;;;;;0.33;0.00;;;;;9.59;82.71;1224.91;4896677;29;45889;-85
2022/11/22 05:55:03;;;;;;;;;0.00;0.00;;;;;9.05;82.26;295.84;4896456;29;45772;-86
2022/11/22 05:57:31;;;;;;;;;0.00;0.00;;;;;9.60;82.72;2987.25;4896425;29;46320;-85
2022/11/22 05:59:59;;;;;;;;;0.00;0.00;;;;;9.36;82.88;3475.41;4896368;29;45513;-87
2022/11/22 06:06:20;;;;;;;;;0.00;0.00;;;;;9.59;82.24;2434.31;4892185;29;46025;-86
2022/11/22 06:08:46;;;;;;;;;0.00;0.00;;;;;8.61;83.06;7474.53;4895191;29;45562;-79
2022/11/22 06:11:30;;;;;;;;;0.00;0.00;;;;;6.96;83.52;11030.06;4892415;28;45996;-82
2022/11/22 06:14:21;;;;;;;;;0.00;0.00;;;;;9.64;83.54;10763.28;4887335;29;45527;-82
2022/11/22 06:16:46;;;;;;;;;1.00;0.00;;;;;8.63;83.14;10104.47;4889982;28;45573;-81
2022/11/22 06:19:12;;;;;;;;;0.00;0.00;;;;;7.88;83.25;11154.75;4898364;29;45931;-81
2022/11/22 06:25:33;;;;;;;;;0.00;0.00;;;;;9.70;83.55;10421.25;4947878;28;45555;-85
2022/11/22 06:27:58;;;;;;;;;1.33;0.00;;;;;9.67;83.08;9114.94;4974427;28;45513;-84
2022/11/22 06:30:26;;;;;;;;;0.00;0.00;;;;;9.46;83.30;9555.28;4963731;28;46278;-86
2022/11/22 06:32:56;;;;;;;;;1.33;0.00;;;;;8.62;83.62;11932.88;4973351;28;45687;-84
2022/11/22 06:35:21;;;;;;;;;0.00;0.00;;;;;9.18;83.20;11657.63;4977326;28;45889;-84
2022/11/22 06:37:47;;;;;;;;;0.00;0.00;;;;;9.63;82.94;8856.72;4976156;28;45383;-88
2022/11/22 06:40:14;;;;;;;;;0.33;0.00;;;;;7.71;83.14;8612.59;4973422;28;45829;-90
2022/11/22 06:42:39;;;;;;;;;0.33;0.33;;;;;9.72;83.37;8556.75;4980907;23;45565;-86
2022/11/22 06:45:08;;;;;;;;;0.00;0.00;;;;;9.75;83.33;9129.34;5010629;28;45543;-91
2022/11/22 06:47:33;;;;;;;;;0.00;0.00;;;;;7.99;83.47;10729.22;5016039;28;45570;-87
2022/11/22 06:49:59;;;;;;;;;0.00;0.00;;;;;9.44;82.20;4963.84;4990042;28;47530;-88
2022/11/22 06:59:58;;;;;;;;;0.67;0.00;;;;;9.91;82.74;3364.31;4913318;28;45555;-87
2022/11/22 07:02:23;;;;;;;;;0.00;0.00;;;;;9.84;82.67;4109.06;4914332;28;46321;-86
2022/11/22 07:04:48;;;;;;;;;0.00;0.00;;;;;9.91;82.60;3444.84;4912588;28;45924;-83
2022/11/22 07:07:14;;;;;;;;;0.00;0.00;;;;;7.72;82.00;1900.31;4910877;28;45670;-85
2022/11/22 07:09:42;;;;;;;;;0.00;0.00;;;;;9.92;82.27;788.50;4915548;28;45766;-88
2022/11/22 07:18:15;;;;;;;;;0.00;0.00;;;;;9.95;81.95;-2947.72;5621044;22;45575;-87
2022/11/22 07:20:59;;;;;;;;;1.00;0.00;;;;;9.94;81.97;-3388.56;4991335;28;45615;-86
2022/11/22 07:23:33;;;;;;;;;0.00;0.00;;;;;9.69;81.55;-6831.75;4998120;28;45495;-87
2022/11/22 07:38:06;;;;;;;;;1.00;0.00;;;;;9.75;81.17;-8344.41;5403567;23;45419;-86
2022/11/22 07:40:31;;;;;;;;;0.00;0.00;;;;;9.57;81.81;-4329.00;4997372;28;45543;-86
2022/11/22 07:42:57;;;;;;;;;0.00;0.00;;;;;8.54;81.24;-8499.41;5009902;23;45598;-88
2022/11/22 07:51:53;;;;;;;;;0.00;0.00;;;;;7.40;81.57;-5287.34;5190110;22;67662;-88
2022/11/22 08:06:01;;;;;;;;;2.33;0.00;;;;;7.70;84.03;14837.66;4986835;28;45674;-87
2022/11/22 08:11:02;;;;;;;;;0.00;0.00;;;;;7.63;83.65;13193.00;5118835;22;45570;-87
2022/11/22 08:13:28;;;;;;;;;4.00;1.00;;;;;9.34;83.84;14978.84;4977834;28;45626;-86
2022/11/22 08:15:55;;;;;;;;;0.00;0.00;;;;;9.12;83.74;14077.44;4998287;28;45527;-88
2022/11/22 08:18:26;;;;;;;;;1.00;0.00;;;;;7.79;83.55;12623.78;4997341;28;46336;-87
2022/11/22 08:21:00;;;;;;;;;0.00;0.00;;;;;9.13;83.60;12238.81;4997781;28;45300;-88
2022/11/22 08:26:16;;;;;;;;;0.00;0.00;;;;;9.80;84.07;14278.44;6153249;22;45410;-88
2022/11/22 08:28:46;;;;;;;;;0.00;0.00;;;;;8.88;83.74;15548.13;4995655;28;45528;-87
2022/11/22 08:33:53;;;;;;;;;0.00;0.00;;;;;7.74;83.47;12394.16;6037804;22;67977;-87
2022/11/22 08:36:52;;;;;;;;;2.00;0.00;;;;;10.25;84.43;15789.94;4997410;28;45456;-88
2022/11/22 08:39:48;;;;;;;;;2.00;0.00;;;;;10.28;84.31;17311.31;4995268;28;45443;-87
2022/11/22 08:42:26;;;;;;;;;0.33;0.00;;;;;8.69;84.50;18979.38;4973012;28;45529;-87
2022/11/22 08:48:13;;;;;;;;;0.00;0.00;;;;;8.78;84.24;18724.75;4986721;28;45496;-87
2022/11/22 08:50:39;;;;;;;;;1.33;1.00;;;;;8.65;84.76;22032.13;4995313;28;47326;-88
2022/11/22 08:56:29;;;;;;;;;0.00;0.00;;;;;8.44;83.77;16874.09;4994839;28;45509;-88
2022/11/22 09:02:16;;;;;;;;;0.00;0.00;;;;;8.53;83.88;15423.13;5382117;23;45605;-87
2022/11/22 09:04:42;;;;;;;;;0.00;0.00;;;;;10.83;83.34;10857.53;4997026;28;45403;-87
2022/11/22 09:07:16;;;;;;;;;0.00;0.00;;;;;9.44;82.99;7075.59;4996628;28;45693;-87
2022/11/22 09:09:41;;;;;;;;;1.00;1.00;;;;;9.89;82.90;9923.06;4987107;28;45562;-87
2022/11/22 09:18:04;;;;;;;;;0.00;0.00;;;;;10.43;82.49;3627.13;4991631;28;45707;-87
2022/11/22 09:20:29;;;;;;;;;1.00;0.00;;;;;9.41;82.01;-2318.09;4983566;28;45462;-87
2022/11/22 09:25:46;;;;;;;;;0.67;0.00;;;;;11.24;82.18;-3750.41;5541879;23;45590;-88
2022/11/22 09:33:15;;;;;;;;;0.00;0.00;;;;;10.91;80.40;-16309.03;4994554;28;45699;-88
2022/11/22 09:35:40;;;;;;;;;1.00;0.00;;;;;8.77;79.88;-18687.44;4996336;28;45570;-88
2022/11/22 09:38:08;;;;;;;;;0.00;0.00;;;;;11.02;79.52;-19506.47;4996709;28;45493;-89
2022/11/22 09:41:28;;;;;;;;;2.00;0.00;;;;;11.52;80.12;-19453.16;4996191;28;45539;-89
2022/11/22 09:46:34;;;;;;;;;2.00;0.00;;;;;9.02;79.27;-19453.97;5853082;23;45526;-88
2022/11/22 09:53:15;;;;;;;;;0.00;0.00;;;;;11.68;79.02;-19524.00;4897101;29;45502;-90
2022/11/22 09:56:12;;;;;;;;;1.00;0.00;;;;;9.69;78.36;-19471.53;4882290;29;46266;-89
2022/11/22 09:58:50;;;;;;;;;1.00;1.00;;;;;10.23;78.21;-19485.84;4896814;29;45493;-87
2022/11/22 10:22:34;;;;;;;;;0.00;0.00;;;;;11.87;76.29;-19528.97;4997138;22;45413;-90
2022/11/22 10:46:39;;;;;;;;;2.67;1.67;;;;;12.69;73.78;-19550.53;5687795;23;47031;-89
2022/11/22 11:27:42;;;;;;;;;1.67;1.00;;;;;12.46;69.70;-19544.47;4926192;23;45811;-87
2022/11/22 11:36:00;;;;;;;;;0.00;0.00;;;;;13.45;68.93;-19570.44;5438461;23;45809;-90
2022/11/22 11:38:26;;;;;;;;;1.00;0.33;;;;;13.58;68.50;-19573.78;4909292;28;45954;-88
2022/11/22 11:50:19;;;;;;;;;1.33;1.00;;;;;12.09;67.60;-19534.63;4911650;28;45704;-87
2022/11/22 12:13:31;;;;;;;;;1.33;0.00;;;;;13.12;64.99;-19561.81;5448415;23;74281;-90
2022/11/22 12:18:59;;;;;;;;;1.00;0.33;;;;;13.41;64.53;-19569.34;5021287;23;68014;-89
2022/11/22 12:39:03;;;;;;;;;0.33;0.00;;;;;14.42;62.25;-19595.84;5591400;23;47041;-93
2022/11/22 12:44:41;;;;;;;;;3.00;2.00;;;;;14.70;63.19;-19603.22;5206477;23;45531;-90
2022/11/22 12:47:39;;;;;;;;;0.50;0.25;;;;;14.60;62.86;-19600.66;4918327;28;46633;-90
2022/11/22 13:03:10;;;;;;;;;2.33;0.00;;;;;14.45;63.05;-19596.63;4875899;29;45560;-91
2022/11/22 13:05:52;;;;;;;;;4.00;0.33;;;;;14.35;62.88;-19594.22;4881522;29;45534;-91
2022/11/22 13:21:35;;;;;;;;;3.67;0.67;;;;;14.24;63.27;-19591.25;4969680;23;45634;-89
2022/11/22 13:24:25;;;;;;;;;1.00;0.67;;;;;14.19;63.21;-19589.78;4888850;28;46035;-90
2022/11/22 13:27:37;;;;;;;;;3.00;1.33;;;;;12.92;63.48;-19556.44;4897477;29;45513;-92
2022/11/22 13:30:03;;;;;;;;;0.33;0.33;;;;;11.79;63.31;-19526.81;4899603;29;45378;-92
2022/11/22 13:32:33;;;;;;;;;1.00;1.00;;;;;14.13;63.73;-19588.31;4900255;29;45377;-91
2022/11/22 13:40:17;;;;;;;;;1.00;1.00;;;;;13.47;63.65;-19570.97;5017880;23;45436;-91
2022/11/22 13:42:43;;;;;;;;;1.33;1.33;;;;;13.94;63.85;-19583.47;4899036;29;45452;-89
2022/11/22 13:45:45;;;;;;;;;;;;;;;;;;;;;
2022/11/22 13:48:11;;;;;;;;;1.00;1.00;;;;;12.69;64.51;-19550.53;5071887;23;71631;-90
2022/11/22 13:50:48;;;;;;;;;0.33;0.00;;;;;13.91;63.86;-19582.53;4875495;23;45425;-88
2022/11/22 13:53:32;;;;;;;;;2.00;1.00;;;;;12.19;63.84;-19537.47;4861823;29;45684;-90
2022/11/22 14:00:26;;;;;;;;;1.00;0.67;;;;;11.09;63.45;-19508.50;4787842;29;45712;-89
2022/11/22 14:16:14;;;;;;;;;1.00;1.00;;;;;13.86;63.94;-19581.31;5467284;23;45534;-91
2022/11/22 14:19:22;;;;;;;;;0.67;0.67;;;;;13.78;63.91;-19579.03;4881267;29;48503;-90
2022/11/22 14:22:16;;;;;;;;;1.00;1.00;;;;;13.83;64.00;-19580.38;4898994;29;45548;-92
2022/11/22 14:24:51;;;;;;;;;0.33;0.00;;;;;13.29;63.91;-19566.25;4900217;28;45487;-91
2022/11/22 14:27:45;;;;;;;;;1.00;1.00;;;;;12.92;64.09;-19556.56;4866230;29;45703;-92
2022/11/22 14:30:39;;;;;;;;;2.00;0.67;;;;;13.36;64.69;-19568.16;4877587;29;47602;-91
2022/11/22 14:33:17;;;;;;;;;0.00;0.00;;;;;13.08;64.45;-19560.75;4884143;29;45729;-90
2022/11/22 14:36:10;;;;;;;;;2.00;1.00;;;;;13.63;63.98;-19575.16;4902438;29;45546;-89
2022/11/22 14:38:40;;;;;;;;;2.00;2.00;;;;;13.63;64.17;-19575.16;4894072;29;45414;-88
2022/11/22 14:41:27;;;;;;;;;2.00;1.00;;;;;13.61;64.19;-19574.59;4884401;29;48178;-88
2022/11/22 14:44:02;;;;;;;;;3.00;0.33;;;;;13.19;64.07;-19563.72;4885514;29;45420;-88
2022/11/22 14:50:24;;;;;;;;;1.00;1.00;;;;;11.39;63.83;-19516.44;4836506;29;45778;-88
2022/11/22 14:56:43;;;;;;;;;2.00;2.00;;;;;13.61;64.25;-19574.59;4837769;29;45518;-89
2022/11/22 14:59:47;;;;;;;;;1.00;1.00;;;;;13.60;63.81;-19574.34;4857322;29;45440;-90
2022/11/22 15:02:32;;;;;;;;;3.00;1.33;;;;;13.52;64.02;-19572.31;4851299;29;45440;-91
2022/11/22 15:05:17;;;;;;;;;4.33;1.33;;;;;13.49;64.54;-19571.66;4847199;29;46745;-96
2022/11/22 15:08:32;;;;;;;;;3.33;3.33;;;;;13.46;64.11;-19570.69;5100429;23;45656;-85
2022/11/22 15:11:35;;;;;;;;;1.33;1.00;;;;;13.44;64.73;-19570.31;4883122;29;45581;-89
2022/11/22 15:14:31;;;;;;;;;4.00;2.67;;;;;13.44;64.84;-19570.16;4880607;29;45624;-89
2022/11/22 15:16:59;;;;;;;;;3.00;2.00;;;;;12.35;64.78;-19541.63;4888872;29;46568;-93
2022/11/22 15:25:40;;;;;;;;;1.67;1.67;;;;;11.04;64.31;-19507.00;5162222;23;46859;-91
2022/11/22 15:33:33;;;;;;;;;6.00;2.67;;;;;13.30;64.46;-19566.53;5408639;23;45773;-89
2022/11/22 15:46:14;;;;;;;;;4.33;2.00;;;;;11.77;64.51;-19526.41;5255383;23;45854;-90
2022/11/22 15:52:14;;;;;;;;;5.00;2.00;;;;;12.48;64.50;-19545.00;4924787;23;46187;-96
2022/11/22 15:54:39;;;;;;;;;2.00;2.00;;;;;11.67;64.61;-19523.72;4885375;29;45678;-90
2022/11/22 15:57:32;;;;;;;;;2.33;2.33;;;;;13.25;65.25;-19565.19;4885839;29;45486;-90
2022/11/22 15:59:58;;;;;;;;;2.00;2.00;;;;;13.25;64.64;-19565.31;4878836;29;45886;-90
2022/11/22 16:02:28;;;;;;;;;5.33;2.00;;;;;13.11;64.85;-19561.56;4884743;29;46060;-89
2022/11/22 16:04:57;;;;;;;;;4.33;2.00;;;;;13.21;64.93;-19564.13;4884374;29;45615;-93
2022/11/22 16:07:52;;;;;;;;;6.00;3.00;;;;;10.66;63.99;-19497.03;4896096;28;45783;-90
2022/11/22 16:10:31;;;;;;;;;2.67;2.67;;;;;13.26;64.86;-19565.59;4882663;29;45295;-93
2022/11/22 16:16:34;;;;;;;;;4.00;2.33;;;;;12.53;64.69;-19546.22;4885386;29;45539;-93
2022/11/22 16:19:47;;;;;;;;;;;;;;;;;;;;;
2022/11/22 16:22:31;;;;;;;;;2.33;2.33;;;;;13.23;64.05;-19564.78;5329739;23;60222;-93
2022/11/22 16:28:35;;;;;;;;;7.33;4.00;;;;;12.74;63.99;-19551.75;5303301;23;45691;-92
2022/11/22 16:37:26;;;;;;;;;5.33;3.67;;;;;13.27;64.79;-19565.72;4886046;29;45719;-93
2022/11/22 16:42:30;;;;;;;;;6.67;4.00;;;;;12.07;64.26;-19534.09;5073988;23;45183;-91
2022/11/22 16:44:56;;;;;;;;;4.00;4.00;;;;;12.94;64.61;-19556.97;4882781;29;45489;-92
2022/11/22 16:47:21;;;;;;;;;5.00;3.00;;;;;12.48;64.71;-19544.88;4863523;29;46252;-89
2022/11/22 17:03:24;;;;;;;;;1.67;1.33;;;;;13.23;65.72;-19564.66;5659940;23;47107;-87
2022/11/22 17:06:36;;;;;;;;;1.33;1.00;;;;;13.22;65.67;-19564.38;4898864;29;45676;-87
2022/11/22 17:15:45;;;;;;;;;0.67;0.67;;;;;12.44;64.82;-19543.94;5060119;23;46498;-90
2022/11/22 17:20:59;;;;;;;;;5.00;2.33;;;;;12.74;64.32;-19551.88;5522166;23;45413;-93
2022/11/22 18:04:46;;;;;;;;;3.00;3.00;;;;;11.41;64.23;-19517.00;5565615;23;46667;-95
2022/11/22 18:08:05;;;;;;;;;4.67;4.00;;;;;13.21;64.06;-19564.13;4893083;29;45445;-88
2022/11/22 18:10:31;;;;;;;;;4.67;3.00;;;;;12.56;64.29;-19547.03;4808738;29;45669;-94
2022/11/22 18:16:18;;;;;;;;;5.67;4.00;;;;;12.28;64.19;-19539.63;5624620;23;45757;-91
2022/11/22 18:18:44;;;;;;;;;1.00;1.00;;;;;11.63;64.41;-19522.66;4878083;29;45489;-93
2022/11/22 18:24:33;;;;;;;;;5.00;4.00;;;;;12.08;64.27;-19534.50;5008689;23;45787;-96
2022/11/22 18:27:14;;;;;;;;;5.00;5.00;;;;;13.06;64.17;-19560.22;4886360;29;45254;-95
2022/11/22 18:29:56;;;;;;;;;5.33;4.00;;;;;11.47;63.93;-19518.34;4973102;23;45858;-90
2022/11/22 18:32:31;;;;;;;;;4.00;4.00;;;;;10.98;64.22;-19505.53;4892718;29;45824;-90
2022/11/22 18:40:53;;;;;;;;;5.67;4.33;;;;;11.91;64.83;-19529.94;5841555;23;67731;-91
2022/11/22 18:43:18;;;;;;;;;4.00;4.00;;;;;11.43;64.05;-19517.25;4872460;29;45445;-96
2022/11/22 18:48:19;;;;;;;;;4.00;4.00;;;;;12.71;64.21;-19550.94;4927995;23;45327;-95
2022/11/22 18:50:50;;;;;;;;;6.00;4.00;;;;;12.70;64.25;-19550.78;4888112;28;45638;-92
2022/11/22 18:53:44;;;;;;;;;8.00;6.00;;;;;12.79;64.53;-19553.09;4886964;29;45566;-90
2022/11/22 18:59:36;;;;;;;;;7.00;5.00;;;;;12.78;64.52;-19552.94;4900046;29;45436;-88
2022/11/22 19:05:14;;;;;;;;;7.33;5.00;;;;;12.77;64.85;-19552.69;4893727;23;45543;-90
2022/11/22 19:11:11;;;;;;;;;6.33;3.67;;;;;11.73;64.85;-19525.19;5246876;23;45633;-91
2022/11/22 19:13:38;;;;;;;;;3.33;3.33;;;;;11.27;65.29;-19513.22;4889716;29;45415;-96